sensor_id;sensor_type;location;lat;lon;timestamp;P1;durP1;ratioP1;P2;durP2;ratioP2
49378;SDS011;35254;47.990;-1.608;2023-12-20T00:02:16;2.83;;;0.93;;
49378;SDS011;35254;47.990;-1.608;2023-12-20T00:04:42;2.33;;;1.40;;
49378;SDS011;35254;47.990;-1.608;2023-12-20T00:07:08;5.50;;;1.15;;
49378;SDS011;35254;47.990;-1.608;2023-12-20T00:09:33;2.33;;;1.23;;
49378;SDS011;35254;47.990;-1.608;2023-12-20T00:11:59;1.88;;;0.80;;
49378;SDS011;35254;47.990;-1.608;2023-12-20T00:14:24;1.67;;;0.80;;
49378;SDS011;35254;47.990;-1.608;2023-12-20T00:16:50;1.65;;;0.90;;
49378;SDS011;35254;47.990;-1.608;2023-12-20T00:19:16;2.17;;;0.70;;
49378;SDS011;35254;47.990;-1.608;2023-12-20T00:21:42;2.67;;;1.05;;
49378;SDS011;35254;47.990;-1.608;2023-12-20T00:24:07;2.05;;;0.93;;
49378;SDS011;35254;47.990;-1.608;2023-12-20T00:26:33;2.08;;;0.77;;
49378;SDS011;35254;47.990;-1.608;2023-12-20T00:28:59;2.38;;;1.20;;
49378;SDS011;35254;47.990;-1.608;2023-12-20T00:31:24;1.17;;;0.90;;
49378;SDS011;35254;47.990;-1.608;2023-12-20T00:33:50;4.60;;;1.15;;
49378;SDS011;35254;47.990;-1.608;2023-12-20T00:36:16;2.22;;;0.90;;
49378;SDS011;35254;47.990;-1.608;2023-12-20T00:38:41;2.00;;;1.05;;
49378;SDS011;35254;47.990;-1.608;2023-12-20T00:41:07;2.15;;;1.20;;
49378;SDS011;35254;47.990;-1.608;2023-12-20T00:43:32;1.30;;;0.82;;
49378;SDS011;35254;47.990;-1.608;2023-12-20T00:45:58;3.28;;;1.08;;
49378;SDS011;35254;47.990;-1.608;2023-12-20T00:48:25;1.85;;;0.85;;
49378;SDS011;35254;47.990;-1.608;2023-12-20T00:50:52;4.50;;;0.88;;
49378;SDS011;35254;47.990;-1.608;2023-12-20T00:53:18;1.45;;;0.93;;
49378;SDS011;35254;47.990;-1.608;2023-12-20T00:55:44;2.85;;;0.98;;
49378;SDS011;35254;47.990;-1.608;2023-12-20T00:58:10;2.63;;;0.75;;
49378;SDS011;35254;47.990;-1.608;2023-12-20T01:00:36;4.05;;;0.88;;
49378;SDS011;35254;47.990;-1.608;2023-12-20T01:03:01;1.48;;;0.80;;
49378;SDS011;35254;47.990;-1.608;2023-12-20T01:05:27;0.98;;;0.68;;
49378;SDS011;35254;47.990;-1.608;2023-12-20T01:07:52;3.05;;;0.93;;
49378;SDS011;35254;47.990;-1.608;2023-12-20T01:10:18;3.17;;;1.10;;
49378;SDS011;35254;47.990;-1.608;2023-12-20T01:12:44;1.00;;;0.90;;
49378;SDS011;35254;47.990;-1.608;2023-12-20T01:15:10;2.42;;;0.90;;
49378;SDS011;35254;47.990;-1.608;2023-12-20T01:17:35;2.67;;;0.80;;
49378;SDS011;35254;47.990;-1.608;2023-12-20T01:20:01;1.23;;;0.80;;
49378;SDS011;35254;47.990;-1.608;2023-12-20T01:22:27;2.67;;;0.43;;
49378;SDS011;35254;47.990;-1.608;2023-12-20T01:24:52;1.63;;;0.73;;
49378;SDS011;35254;47.990;-1.608;2023-12-20T01:27:18;1.50;;;0.70;;
49378;SDS011;35254;47.990;-1.608;2023-12-20T01:29:44;2.28;;;0.88;;
49378;SDS011;35254;47.990;-1.608;2023-12-20T01:32:09;3.33;;;0.93;;
49378;SDS011;35254;47.990;-1.608;2023-12-20T01:34:35;1.35;;;0.68;;
49378;SDS011;35254;47.990;-1.608;2023-12-20T01:37:01;0.88;;;0.70;;
49378;SDS011;35254;47.990;-1.608;2023-12-20T01:39:27;2.13;;;1.33;;
49378;SDS011;35254;47.990;-1.608;2023-12-20T01:41:53;1.17;;;0.60;;
49378;SDS011;35254;47.990;-1.608;2023-12-20T01:44:18;2.75;;;0.82;;
49378;SDS011;35254;47.990;-1.608;2023-12-20T01:46:45;2.38;;;0.70;;
49378;SDS011;35254;47.990;-1.608;2023-12-20T01:49:11;1.52;;;0.88;;
49378;SDS011;35254;47.990;-1.608;2023-12-20T01:51:37;1.40;;;0.88;;
49378;SDS011;35254;47.990;-1.608;2023-12-20T01:54:03;4.07;;;2.42;;
49378;SDS011;35254;47.990;-1.608;2023-12-20T01:56:30;2.90;;;0.77;;
49378;SDS011;35254;47.990;-1.608;2023-12-20T01:58:56;1.48;;;0.60;;
49378;SDS011;35254;47.990;-1.608;2023-12-20T02:01:23;1.42;;;0.70;;
49378;SDS011;35254;47.990;-1.608;2023-12-20T02:03:49;0.93;;;0.70;;
49378;SDS011;35254;47.990;-1.608;2023-12-20T02:06:16;1.52;;;0.60;;
49378;SDS011;35254;47.990;-1.608;2023-12-20T02:08:43;0.60;;;0.55;;
49378;SDS011;35254;47.990;-1.608;2023-12-20T02:11:09;4.28;;;1.25;;
49378;SDS011;35254;47.990;-1.608;2023-12-20T02:13:35;1.90;;;0.88;;
49378;SDS011;35254;47.990;-1.608;2023-12-20T02:16:01;0.95;;;0.50;;
49378;SDS011;35254;47.990;-1.608;2023-12-20T02:18:27;1.65;;;0.50;;
49378;SDS011;35254;47.990;-1.608;2023-12-20T02:20:53;1.15;;;0.55;;
49378;SDS011;35254;47.990;-1.608;2023-12-20T02:23:18;0.50;;;0.43;;
49378;SDS011;35254;47.990;-1.608;2023-12-20T02:25:44;2.72;;;0.70;;
49378;SDS011;35254;47.990;-1.608;2023-12-20T02:28:10;0.63;;;0.63;;
49378;SDS011;35254;47.990;-1.608;2023-12-20T02:30:35;2.33;;;0.75;;
49378;SDS011;35254;47.990;-1.608;2023-12-20T02:33:01;0.60;;;0.60;;
49378;SDS011;35254;47.990;-1.608;2023-12-20T02:35:32;1.10;;;0.63;;
49378;SDS011;35254;47.990;-1.608;2023-12-20T02:37:57;1.77;;;0.80;;
49378;SDS011;35254;47.990;-1.608;2023-12-20T02:40:23;3.78;;;0.70;;
49378;SDS011;35254;47.990;-1.608;2023-12-20T02:42:49;4.95;;;0.80;;
49378;SDS011;35254;47.990;-1.608;2023-12-20T02:45:14;1.77;;;0.55;;
49378;SDS011;35254;47.990;-1.608;2023-12-20T02:47:40;1.95;;;0.85;;
49378;SDS011;35254;47.990;-1.608;2023-12-20T02:50:05;1.17;;;0.55;;
49378;SDS011;35254;47.990;-1.608;2023-12-20T02:52:31;2.83;;;0.50;;
49378;SDS011;35254;47.990;-1.608;2023-12-20T02:54:57;0.98;;;0.60;;
49378;SDS011;35254;47.990;-1.608;2023-12-20T02:57:22;2.08;;;0.70;;
49378;SDS011;35254;47.990;-1.608;2023-12-20T02:59:48;2.35;;;0.80;;
49378;SDS011;35254;47.990;-1.608;2023-12-20T03:02:14;18.38;;;2.97;;
49378;SDS011;35254;47.990;-1.608;2023-12-20T03:04:40;4.90;;;0.68;;
49378;SDS011;35254;47.990;-1.608;2023-12-20T03:07:05;1.35;;;0.52;;
49378;SDS011;35254;47.990;-1.608;2023-12-20T03:09:31;1.02;;;0.50;;
49378;SDS011;35254;47.990;-1.608;2023-12-20T03:11:57;0.63;;;0.47;;
49378;SDS011;35254;47.990;-1.608;2023-12-20T03:14:22;1.90;;;0.80;;
49378;SDS011;35254;47.990;-1.608;2023-12-20T03:16:51;0.75;;;0.52;;
49378;SDS011;35254;47.990;-1.608;2023-12-20T03:19:17;1.08;;;0.50;;
49378;SDS011;35254;47.990;-1.608;2023-12-20T03:21:44;2.92;;;0.85;;
49378;SDS011;35254;47.990;-1.608;2023-12-20T03:24:10;1.30;;;0.60;;
49378;SDS011;35254;47.990;-1.608;2023-12-20T03:26:35;1.23;;;0.63;;
49378;SDS011;35254;47.990;-1.608;2023-12-20T03:29:01;1.70;;;0.52;;
49378;SDS011;35254;47.990;-1.608;2023-12-20T03:31:26;2.60;;;0.60;;
49378;SDS011;35254;47.990;-1.608;2023-12-20T03:33:52;0.65;;;0.40;;
49378;SDS011;35254;47.990;-1.608;2023-12-20T03:36:18;1.33;;;0.52;;
49378;SDS011;35254;47.990;-1.608;2023-12-20T03:38:45;2.03;;;0.60;;
49378;SDS011;35254;47.990;-1.608;2023-12-20T03:41:10;0.95;;;0.70;;
49378;SDS011;35254;47.990;-1.608;2023-12-20T03:43:36;0.70;;;0.40;;
49378;SDS011;35254;47.990;-1.608;2023-12-20T03:46:02;2.85;;;0.47;;
49378;SDS011;35254;47.990;-1.608;2023-12-20T03:48:29;1.25;;;0.32;;
49378;SDS011;35254;47.990;-1.608;2023-12-20T03:50:55;1.80;;;0.88;;
49378;SDS011;35254;47.990;-1.608;2023-12-20T03:53:21;1.52;;;0.90;;
49378;SDS011;35254;47.990;-1.608;2023-12-20T03:55:47;3.22;;;0.60;;
49378;SDS011;35254;47.990;-1.608;2023-12-20T03:58:13;2.72;;;0.60;;
49378;SDS011;35254;47.990;-1.608;2023-12-20T04:00:38;3.13;;;0.75;;
49378;SDS011;35254;47.990;-1.608;2023-12-20T04:03:04;1.08;;;0.50;;
49378;SDS011;35254;47.990;-1.608;2023-12-20T04:05:29;3.15;;;0.60;;
49378;SDS011;35254;47.990;-1.608;2023-12-20T04:07:55;1.55;;;0.50;;
49378;SDS011;35254;47.990;-1.608;2023-12-20T04:10:21;0.93;;;0.55;;
49378;SDS011;35254;47.990;-1.608;2023-12-20T04:12:46;0.93;;;0.60;;
49378;SDS011;35254;47.990;-1.608;2023-12-20T04:15:12;0.30;;;0.30;;
49378;SDS011;35254;47.990;-1.608;2023-12-20T04:17:37;0.98;;;0.55;;
49378;SDS011;35254;47.990;-1.608;2023-12-20T04:20:03;2.03;;;0.63;;
49378;SDS011;35254;47.990;-1.608;2023-12-20T04:22:30;2.53;;;0.80;;
49378;SDS011;35254;47.990;-1.608;2023-12-20T04:24:55;0.75;;;0.38;;
49378;SDS011;35254;47.990;-1.608;2023-12-20T04:27:21;1.55;;;0.47;;
49378;SDS011;35254;47.990;-1.608;2023-12-20T04:29:46;2.38;;;0.60;;
49378;SDS011;35254;47.990;-1.608;2023-12-20T04:32:12;1.88;;;0.40;;
49378;SDS011;35254;47.990;-1.608;2023-12-20T04:34:38;0.55;;;0.52;;
49378;SDS011;35254;47.990;-1.608;2023-12-20T04:37:04;3.03;;;0.60;;
49378;SDS011;35254;47.990;-1.608;2023-12-20T04:39:29;1.15;;;0.40;;
49378;SDS011;35254;47.990;-1.608;2023-12-20T04:41:55;1.67;;;0.50;;
49378;SDS011;35254;47.990;-1.608;2023-12-20T04:44:21;1.25;;;0.70;;
49378;SDS011;35254;47.990;-1.608;2023-12-20T04:46:46;1.50;;;0.88;;
49378;SDS011;35254;47.990;-1.608;2023-12-20T04:49:12;2.38;;;0.70;;
49378;SDS011;35254;47.990;-1.608;2023-12-20T04:51:37;1.30;;;0.60;;
49378;SDS011;35254;47.990;-1.608;2023-12-20T04:54:03;0.40;;;0.35;;
49378;SDS011;35254;47.990;-1.608;2023-12-20T04:56:29;1.95;;;0.70;;
49378;SDS011;35254;47.990;-1.608;2023-12-20T04:58:54;0.98;;;0.57;;
49378;SDS011;35254;47.990;-1.608;2023-12-20T05:01:20;2.15;;;0.50;;
49378;SDS011;35254;47.990;-1.608;2023-12-20T05:03:46;0.93;;;0.57;;
49378;SDS011;35254;47.990;-1.608;2023-12-20T05:06:12;1.35;;;0.60;;
49378;SDS011;35254;47.990;-1.608;2023-12-20T05:08:37;1.23;;;0.68;;
49378;SDS011;35254;47.990;-1.608;2023-12-20T05:11:04;0.80;;;0.50;;
49378;SDS011;35254;47.990;-1.608;2023-12-20T05:13:30;0.28;;;0.22;;
49378;SDS011;35254;47.990;-1.608;2023-12-20T05:15:55;2.70;;;0.95;;
49378;SDS011;35254;47.990;-1.608;2023-12-20T05:18:21;0.80;;;0.47;;
49378;SDS011;35254;47.990;-1.608;2023-12-20T05:20:47;1.90;;;0.60;;
49378;SDS011;35254;47.990;-1.608;2023-12-20T05:23:14;3.20;;;0.88;;
49378;SDS011;35254;47.990;-1.608;2023-12-20T05:25:40;1.17;;;0.55;;
49378;SDS011;35254;47.990;-1.608;2023-12-20T05:28:05;1.00;;;0.60;;
49378;SDS011;35254;47.990;-1.608;2023-12-20T05:30:31;0.55;;;0.38;;
49378;SDS011;35254;47.990;-1.608;2023-12-20T05:32:57;4.10;;;1.10;;
49378;SDS011;35254;47.990;-1.608;2023-12-20T05:35:22;1.90;;;0.77;;
49378;SDS011;35254;47.990;-1.608;2023-12-20T05:37:48;1.90;;;0.70;;
49378;SDS011;35254;47.990;-1.608;2023-12-20T05:40:14;1.58;;;0.80;;
49378;SDS011;35254;47.990;-1.608;2023-12-20T05:42:40;1.67;;;0.93;;
49378;SDS011;35254;47.990;-1.608;2023-12-20T05:45:06;1.00;;;0.40;;
49378;SDS011;35254;47.990;-1.608;2023-12-20T05:47:32;1.42;;;0.70;;
49378;SDS011;35254;47.990;-1.608;2023-12-20T05:49:57;1.42;;;0.43;;
49378;SDS011;35254;47.990;-1.608;2023-12-20T05:52:23;0.47;;;0.40;;
49378;SDS011;35254;47.990;-1.608;2023-12-20T05:54:49;2.03;;;0.65;;
49378;SDS011;35254;47.990;-1.608;2023-12-20T05:57:14;4.88;;;0.73;;
49378;SDS011;35254;47.990;-1.608;2023-12-20T05:59:40;0.95;;;0.52;;
49378;SDS011;35254;47.990;-1.608;2023-12-20T06:02:06;3.30;;;0.55;;
49378;SDS011;35254;47.990;-1.608;2023-12-20T06:04:32;0.70;;;0.32;;
49378;SDS011;35254;47.990;-1.608;2023-12-20T06:06:57;1.20;;;0.43;;
49378;SDS011;35254;47.990;-1.608;2023-12-20T06:09:24;2.78;;;0.80;;
49378;SDS011;35254;47.990;-1.608;2023-12-20T06:11:51;1.65;;;0.40;;
49378;SDS011;35254;47.990;-1.608;2023-12-20T06:14:17;1.27;;;1.13;;
49378;SDS011;35254;47.990;-1.608;2023-12-20T06:16:43;1.02;;;0.70;;
49378;SDS011;35254;47.990;-1.608;2023-12-20T06:19:10;2.05;;;0.43;;
49378;SDS011;35254;47.990;-1.608;2023-12-20T06:21:35;1.70;;;1.00;;
49378;SDS011;35254;47.990;-1.608;2023-12-20T06:24:01;2.03;;;0.52;;
49378;SDS011;35254;47.990;-1.608;2023-12-20T06:26:27;1.45;;;0.55;;
49378;SDS011;35254;47.990;-1.608;2023-12-20T06:28:52;1.40;;;1.27;;
49378;SDS011;35254;47.990;-1.608;2023-12-20T06:31:18;2.88;;;1.52;;
49378;SDS011;35254;47.990;-1.608;2023-12-20T06:33:43;0.47;;;0.40;;
49378;SDS011;35254;47.990;-1.608;2023-12-20T06:36:12;3.30;;;1.33;;
49378;SDS011;35254;47.990;-1.608;2023-12-20T06:38:38;6.38;;;0.73;;
49378;SDS011;35254;47.990;-1.608;2023-12-20T06:41:04;1.40;;;0.60;;
49378;SDS011;35254;47.990;-1.608;2023-12-20T06:43:31;1.08;;;0.50;;
49378;SDS011;35254;47.990;-1.608;2023-12-20T06:45:57;0.95;;;0.60;;
49378;SDS011;35254;47.990;-1.608;2023-12-20T06:48:23;3.20;;;0.65;;
49378;SDS011;35254;47.990;-1.608;2023-12-20T06:50:48;1.42;;;0.80;;
49378;SDS011;35254;47.990;-1.608;2023-12-20T06:53:14;1.30;;;0.82;;
49378;SDS011;35254;47.990;-1.608;2023-12-20T06:55:40;2.10;;;0.63;;
49378;SDS011;35254;47.990;-1.608;2023-12-20T06:58:05;1.50;;;0.98;;
49378;SDS011;35254;47.990;-1.608;2023-12-20T07:00:32;1.75;;;0.98;;
49378;SDS011;35254;47.990;-1.608;2023-12-20T07:02:58;3.05;;;1.17;;
49378;SDS011;35254;47.990;-1.608;2023-12-20T07:05:24;1.95;;;0.73;;
49378;SDS011;35254;47.990;-1.608;2023-12-20T07:07:49;1.65;;;0.80;;
49378;SDS011;35254;47.990;-1.608;2023-12-20T07:10:15;1.30;;;0.65;;
49378;SDS011;35254;47.990;-1.608;2023-12-20T07:12:41;1.73;;;1.02;;
49378;SDS011;35254;47.990;-1.608;2023-12-20T07:15:06;3.13;;;1.20;;
49378;SDS011;35254;47.990;-1.608;2023-12-20T07:17:33;2.35;;;1.00;;
49378;SDS011;35254;47.990;-1.608;2023-12-20T07:19:59;2.53;;;0.70;;
49378;SDS011;35254;47.990;-1.608;2023-12-20T07:22:28;2.20;;;0.98;;
49378;SDS011;35254;47.990;-1.608;2023-12-20T07:24:56;1.33;;;0.65;;
49378;SDS011;35254;47.990;-1.608;2023-12-20T07:27:22;3.60;;;0.95;;
49378;SDS011;35254;47.990;-1.608;2023-12-20T07:29:48;10.95;;;1.10;;
49378;SDS011;35254;47.990;-1.608;2023-12-20T07:32:13;2.95;;;0.93;;
49378;SDS011;35254;47.990;-1.608;2023-12-20T07:34:39;5.65;;;0.95;;
49378;SDS011;35254;47.990;-1.608;2023-12-20T07:37:05;3.63;;;1.33;;
49378;SDS011;35254;47.990;-1.608;2023-12-20T07:39:30;2.22;;;0.98;;
49378;SDS011;35254;47.990;-1.608;2023-12-20T07:41:56;2.15;;;1.10;;
49378;SDS011;35254;47.990;-1.608;2023-12-20T07:44:21;2.22;;;0.90;;
49378;SDS011;35254;47.990;-1.608;2023-12-20T07:46:47;2.60;;;1.23;;
49378;SDS011;35254;47.990;-1.608;2023-12-20T07:49:13;1.67;;;0.90;;
49378;SDS011;35254;47.990;-1.608;2023-12-20T07:51:39;1.38;;;0.50;;
49378;SDS011;35254;47.990;-1.608;2023-12-20T07:54:05;2.67;;;0.95;;
49378;SDS011;35254;47.990;-1.608;2023-12-20T07:56:30;4.15;;;0.80;;
49378;SDS011;35254;47.990;-1.608;2023-12-20T07:58:56;3.38;;;1.10;;
49378;SDS011;35254;47.990;-1.608;2023-12-20T08:01:22;2.80;;;1.08;;
49378;SDS011;35254;47.990;-1.608;2023-12-20T08:03:48;2.30;;;1.08;;
49378;SDS011;35254;47.990;-1.608;2023-12-20T08:06:14;5.57;;;1.00;;
49378;SDS011;35254;47.990;-1.608;2023-12-20T08:08:42;3.05;;;1.13;;
49378;SDS011;35254;47.990;-1.608;2023-12-20T08:11:07;3.38;;;1.08;;
49378;SDS011;35254;47.990;-1.608;2023-12-20T08:13:33;3.70;;;1.27;;
49378;SDS011;35254;47.990;-1.608;2023-12-20T08:15:59;2.85;;;1.27;;
49378;SDS011;35254;47.990;-1.608;2023-12-20T08:18:24;3.67;;;0.70;;
49378;SDS011;35254;47.990;-1.608;2023-12-20T08:20:50;3.13;;;1.05;;
49378;SDS011;35254;47.990;-1.608;2023-12-20T08:23:17;2.42;;;1.00;;
49378;SDS011;35254;47.990;-1.608;2023-12-20T08:25:44;5.63;;;1.33;;
49378;SDS011;35254;47.990;-1.608;2023-12-20T08:28:09;3.28;;;0.98;;
49378;SDS011;35254;47.990;-1.608;2023-12-20T08:30:35;4.38;;;1.20;;
49378;SDS011;35254;47.990;-1.608;2023-12-20T08:33:01;3.97;;;1.20;;
49378;SDS011;35254;47.990;-1.608;2023-12-20T08:35:27;2.22;;;1.10;;
49378;SDS011;35254;47.990;-1.608;2023-12-20T08:37:53;9.68;;;1.38;;
49378;SDS011;35254;47.990;-1.608;2023-12-20T08:40:18;2.00;;;1.30;;
49378;SDS011;35254;47.990;-1.608;2023-12-20T08:42:45;3.38;;;1.20;;
49378;SDS011;35254;47.990;-1.608;2023-12-20T08:45:11;3.00;;;1.00;;
49378;SDS011;35254;47.990;-1.608;2023-12-20T08:47:36;2.40;;;1.20;;
49378;SDS011;35254;47.990;-1.608;2023-12-20T08:50:02;5.68;;;1.23;;
49378;SDS011;35254;47.990;-1.608;2023-12-20T08:52:28;7.90;;;1.05;;
49378;SDS011;35254;47.990;-1.608;2023-12-20T08:54:54;5.00;;;1.33;;
49378;SDS011;35254;47.990;-1.608;2023-12-20T08:57:20;3.90;;;1.00;;
49378;SDS011;35254;47.990;-1.608;2023-12-20T08:59:49;2.05;;;0.85;;
49378;SDS011;35254;47.990;-1.608;2023-12-20T09:02:15;2.92;;;1.10;;
49378;SDS011;35254;47.990;-1.608;2023-12-20T09:04:41;2.63;;;0.88;;
49378;SDS011;35254;47.990;-1.608;2023-12-20T09:07:20;2.67;;;1.00;;
49378;SDS011;35254;47.990;-1.608;2023-12-20T09:09:46;3.50;;;1.05;;
49378;SDS011;35254;47.990;-1.608;2023-12-20T09:12:12;2.83;;;1.13;;
49378;SDS011;35254;47.990;-1.608;2023-12-20T09:14:37;4.53;;;1.10;;
49378;SDS011;35254;47.990;-1.608;2023-12-20T09:17:03;2.22;;;0.70;;
49378;SDS011;35254;47.990;-1.608;2023-12-20T09:19:29;4.53;;;1.38;;
49378;SDS011;35254;47.990;-1.608;2023-12-20T09:21:54;4.35;;;1.02;;
49378;SDS011;35254;47.990;-1.608;2023-12-20T09:24:20;5.00;;;0.90;;
49378;SDS011;35254;47.990;-1.608;2023-12-20T09:26:46;1.77;;;0.70;;
49378;SDS011;35254;47.990;-1.608;2023-12-20T09:29:11;2.45;;;1.00;;
49378;SDS011;35254;47.990;-1.608;2023-12-20T09:31:40;1.40;;;0.90;;
49378;SDS011;35254;47.990;-1.608;2023-12-20T09:34:06;5.18;;;1.02;;
49378;SDS011;35254;47.990;-1.608;2023-12-20T09:36:32;1.88;;;0.80;;
49378;SDS011;35254;47.990;-1.608;2023-12-20T09:39:01;2.38;;;0.70;;
49378;SDS011;35254;47.990;-1.608;2023-12-20T09:41:27;6.35;;;1.02;;
49378;SDS011;35254;47.990;-1.608;2023-12-20T09:43:56;2.92;;;0.82;;
49378;SDS011;35254;47.990;-1.608;2023-12-20T09:46:27;4.75;;;1.27;;
49378;SDS011;35254;47.990;-1.608;2023-12-20T09:48:58;3.15;;;1.02;;
49378;SDS011;35254;47.990;-1.608;2023-12-20T09:51:26;2.50;;;0.98;;
49378;SDS011;35254;47.990;-1.608;2023-12-20T09:53:53;4.82;;;0.93;;
49378;SDS011;35254;47.990;-1.608;2023-12-20T09:56:21;2.95;;;1.30;;
49378;SDS011;35254;47.990;-1.608;2023-12-20T09:58:47;3.05;;;1.10;;
49378;SDS011;35254;47.990;-1.608;2023-12-20T10:01:13;2.65;;;1.15;;
49378;SDS011;35254;47.990;-1.608;2023-12-20T10:03:40;3.67;;;1.65;;
49378;SDS011;35254;47.990;-1.608;2023-12-20T10:06:06;13.80;;;3.38;;
49378;SDS011;35254;47.990;-1.608;2023-12-20T10:08:32;4.88;;;1.75;;
49378;SDS011;35254;47.990;-1.608;2023-12-20T10:10:57;2.83;;;1.33;;
49378;SDS011;35254;47.990;-1.608;2023-12-20T10:13:27;7.28;;;1.38;;
49378;SDS011;35254;47.990;-1.608;2023-12-20T10:15:54;5.40;;;1.88;;
49378;SDS011;35254;47.990;-1.608;2023-12-20T10:18:20;2.13;;;1.30;;
49378;SDS011;35254;47.990;-1.608;2023-12-20T10:20:46;5.05;;;1.27;;
49378;SDS011;35254;47.990;-1.608;2023-12-20T10:23:12;6.72;;;1.63;;
49378;SDS011;35254;47.990;-1.608;2023-12-20T10:25:39;5.95;;;1.77;;
49378;SDS011;35254;47.990;-1.608;2023-12-20T10:28:10;8.52;;;2.38;;
49378;SDS011;35254;47.990;-1.608;2023-12-20T10:30:38;3.58;;;1.25;;
49378;SDS011;35254;47.990;-1.608;2023-12-20T10:33:07;2.78;;;1.02;;
49378;SDS011;35254;47.990;-1.608;2023-12-20T10:35:33;3.10;;;1.52;;
49378;SDS011;35254;47.990;-1.608;2023-12-20T10:38:01;5.90;;;2.03;;
49378;SDS011;35254;47.990;-1.608;2023-12-20T10:40:29;5.15;;;1.52;;
49378;SDS011;35254;47.990;-1.608;2023-12-20T10:42:56;3.50;;;1.48;;
49378;SDS011;35254;47.990;-1.608;2023-12-20T10:45:24;4.82;;;1.13;;
49378;SDS011;35254;47.990;-1.608;2023-12-20T10:47:50;1.90;;;0.95;;
49378;SDS011;35254;47.990;-1.608;2023-12-20T10:50:16;7.47;;;1.50;;
49378;SDS011;35254;47.990;-1.608;2023-12-20T10:52:44;3.85;;;1.15;;
49378;SDS011;35254;47.990;-1.608;2023-12-20T10:55:11;3.17;;;0.73;;
49378;SDS011;35254;47.990;-1.608;2023-12-20T10:57:37;4.22;;;1.15;;
49378;SDS011;35254;47.990;-1.608;2023-12-20T11:00:04;3.83;;;1.30;;
49378;SDS011;35254;47.990;-1.608;2023-12-20T11:02:34;4.40;;;1.37;;
49378;SDS011;35254;47.990;-1.608;2023-12-20T11:07:41;5.63;;;1.17;;
49378;SDS011;35254;47.990;-1.608;2023-12-20T11:10:21;6.05;;;1.52;;
49378;SDS011;35254;47.990;-1.608;2023-12-20T11:12:52;4.53;;;1.10;;
49378;SDS011;35254;47.990;-1.608;2023-12-20T11:15:22;4.30;;;1.20;;
49378;SDS011;35254;47.990;-1.608;2023-12-20T11:17:55;3.38;;;1.60;;
49378;SDS011;35254;47.990;-1.608;2023-12-20T11:20:23;3.53;;;1.13;;
49378;SDS011;35254;47.990;-1.608;2023-12-20T11:22:59;4.03;;;1.20;;
49378;SDS011;35254;47.990;-1.608;2023-12-20T11:25:25;2.22;;;1.00;;
49378;SDS011;35254;47.990;-1.608;2023-12-20T11:30:49;1.70;;;0.98;;
49378;SDS011;35254;47.990;-1.608;2023-12-20T11:33:16;4.32;;;1.20;;
49378;SDS011;35254;47.990;-1.608;2023-12-20T11:35:46;3.90;;;1.25;;
49378;SDS011;35254;47.990;-1.608;2023-12-20T11:38:13;2.83;;;1.50;;
49378;SDS011;35254;47.990;-1.608;2023-12-20T11:40:39;2.45;;;1.08;;
49378;SDS011;35254;47.990;-1.608;2023-12-20T11:43:07;4.40;;;1.33;;
49378;SDS011;35254;47.990;-1.608;2023-12-20T11:45:32;8.23;;;1.80;;
49378;SDS011;35254;47.990;-1.608;2023-12-20T11:47:59;12.32;;;3.08;;
49378;SDS011;35254;47.990;-1.608;2023-12-20T11:50:29;13.60;;;4.35;;
49378;SDS011;35254;47.990;-1.608;2023-12-20T11:52:55;12.77;;;4.45;;
49378;SDS011;35254;47.990;-1.608;2023-12-20T11:55:24;14.50;;;3.47;;
49378;SDS011;35254;47.990;-1.608;2023-12-20T11:57:50;10.05;;;3.28;;
49378;SDS011;35254;47.990;-1.608;2023-12-20T12:00:17;8.68;;;2.35;;
49378;SDS011;35254;47.990;-1.608;2023-12-20T12:02:43;5.90;;;2.35;;
49378;SDS011;35254;47.990;-1.608;2023-12-20T12:05:19;5.35;;;1.92;;
49378;SDS011;35254;47.990;-1.608;2023-12-20T12:07:45;7.35;;;2.95;;
49378;SDS011;35254;47.990;-1.608;2023-12-20T12:10:10;6.05;;;2.25;;
49378;SDS011;35254;47.990;-1.608;2023-12-20T12:12:36;8.43;;;2.30;;
49378;SDS011;35254;47.990;-1.608;2023-12-20T12:15:02;6.05;;;1.80;;
49378;SDS011;35254;47.990;-1.608;2023-12-20T12:17:28;7.85;;;1.85;;
49378;SDS011;35254;47.990;-1.608;2023-12-20T12:20:01;6.90;;;2.40;;
49378;SDS011;35254;47.990;-1.608;2023-12-20T12:22:29;4.25;;;1.98;;
49378;SDS011;35254;47.990;-1.608;2023-12-20T12:24:55;2.58;;;1.23;;
49378;SDS011;35254;47.990;-1.608;2023-12-20T12:27:26;4.25;;;1.67;;
49378;SDS011;35254;47.990;-1.608;2023-12-20T12:30:02;5.85;;;1.63;;
49378;SDS011;35254;47.990;-1.608;2023-12-20T12:32:29;6.50;;;1.50;;
49378;SDS011;35254;47.990;-1.608;2023-12-20T12:34:54;4.15;;;1.58;;
49378;SDS011;35254;47.990;-1.608;2023-12-20T12:37:20;4.15;;;1.52;;
49378;SDS011;35254;47.990;-1.608;2023-12-20T12:39:48;4.13;;;1.75;;
49378;SDS011;35254;47.990;-1.608;2023-12-20T12:42:14;3.40;;;1.48;;
49378;SDS011;35254;47.990;-1.608;2023-12-20T12:44:40;3.72;;;1.67;;
49378;SDS011;35254;47.990;-1.608;2023-12-20T12:47:06;2.83;;;1.42;;
49378;SDS011;35254;47.990;-1.608;2023-12-20T12:49:33;2.40;;;1.52;;
49378;SDS011;35254;47.990;-1.608;2023-12-20T12:51:58;5.05;;;1.92;;
49378;SDS011;35254;47.990;-1.608;2023-12-20T12:54:24;2.47;;;1.20;;
49378;SDS011;35254;47.990;-1.608;2023-12-20T12:56:50;5.63;;;1.42;;
49378;SDS011;35254;47.990;-1.608;2023-12-20T12:59:18;4.30;;;1.52;;
49378;SDS011;35254;47.990;-1.608;2023-12-20T13:01:43;5.78;;;0.90;;
49378;SDS011;35254;47.990;-1.608;2023-12-20T13:04:09;2.40;;;1.50;;
49378;SDS011;35254;47.990;-1.608;2023-12-20T13:06:38;1.58;;;1.05;;
49378;SDS011;35254;47.990;-1.608;2023-12-20T13:09:04;4.40;;;1.33;;
49378;SDS011;35254;47.990;-1.608;2023-12-20T13:11:30;3.17;;;1.35;;
49378;SDS011;35254;47.990;-1.608;2023-12-20T13:13:56;2.38;;;1.20;;
49378;SDS011;35254;47.990;-1.608;2023-12-20T13:16:23;4.75;;;2.20;;
49378;SDS011;35254;47.990;-1.608;2023-12-20T13:18:49;2.70;;;1.52;;
49378;SDS011;35254;47.990;-1.608;2023-12-20T13:21:15;3.67;;;1.80;;
49378;SDS011;35254;47.990;-1.608;2023-12-20T13:23:41;2.55;;;1.40;;
49378;SDS011;35254;47.990;-1.608;2023-12-20T13:26:07;3.28;;;1.10;;
49378;SDS011;35254;47.990;-1.608;2023-12-20T13:28:33;2.25;;;1.10;;
49378;SDS011;35254;47.990;-1.608;2023-12-20T13:30:59;3.95;;;1.25;;
49378;SDS011;35254;47.990;-1.608;2023-12-20T13:33:24;4.20;;;1.25;;
49378;SDS011;35254;47.990;-1.608;2023-12-20T13:35:50;2.72;;;1.13;;
49378;SDS011;35254;47.990;-1.608;2023-12-20T13:38:16;1.98;;;1.08;;
49378;SDS011;35254;47.990;-1.608;2023-12-20T13:40:42;3.13;;;1.33;;
49378;SDS011;35254;47.990;-1.608;2023-12-20T13:43:08;1.80;;;1.17;;
49378;SDS011;35254;47.990;-1.608;2023-12-20T13:45:34;2.47;;;1.13;;
49378;SDS011;35254;47.990;-1.608;2023-12-20T13:47:59;2.65;;;1.00;;
49378;SDS011;35254;47.990;-1.608;2023-12-20T13:50:25;3.58;;;1.10;;
49378;SDS011;35254;47.990;-1.608;2023-12-20T13:52:51;4.07;;;1.10;;
49378;SDS011;35254;47.990;-1.608;2023-12-20T13:55:16;4.10;;;2.10;;
49378;SDS011;35254;47.990;-1.608;2023-12-20T13:57:42;1.40;;;0.77;;
49378;SDS011;35254;47.990;-1.608;2023-12-20T14:00:08;4.78;;;1.20;;
49378;SDS011;35254;47.990;-1.608;2023-12-20T14:02:39;2.80;;;1.20;;
49378;SDS011;35254;47.990;-1.608;2023-12-20T14:05:06;1.88;;;1.00;;
49378;SDS011;35254;47.990;-1.608;2023-12-20T14:07:32;2.08;;;0.95;;
49378;SDS011;35254;47.990;-1.608;2023-12-20T14:09:58;2.45;;;1.13;;
49378;SDS011;35254;47.990;-1.608;2023-12-20T14:12:24;4.40;;;1.80;;
49378;SDS011;35254;47.990;-1.608;2023-12-20T14:14:50;2.58;;;0.75;;
49378;SDS011;35254;47.990;-1.608;2023-12-20T14:17:16;1.40;;;0.70;;
49378;SDS011;35254;47.990;-1.608;2023-12-20T14:19:42;2.85;;;1.27;;
49378;SDS011;35254;47.990;-1.608;2023-12-20T14:22:08;4.55;;;1.23;;
49378;SDS011;35254;47.990;-1.608;2023-12-20T14:24:34;4.15;;;1.20;;
49378;SDS011;35254;47.990;-1.608;2023-12-20T14:27:01;2.80;;;1.02;;
49378;SDS011;35254;47.990;-1.608;2023-12-20T14:29:26;6.43;;;1.67;;
49378;SDS011;35254;47.990;-1.608;2023-12-20T14:31:52;3.63;;;1.48;;
49378;SDS011;35254;47.990;-1.608;2023-12-20T14:34:18;2.83;;;1.23;;